createdAt,value
2022-07-26T00:02:15.285Z,18.80
2022-07-26T00:06:19.980Z,18.80
2022-07-26T00:10:21.717Z,18.70
2022-07-26T00:14:23.463Z,18.70
2022-07-26T00:18:25.807Z,18.70
2022-07-26T00:22:36.347Z,18.70
2022-07-26T00:26:38.072Z,18.60
2022-07-26T00:30:39.989Z,18.60
2022-07-26T00:34:41.844Z,18.60
2022-07-26T00:38:43.601Z,18.50
2022-07-26T00:42:45.462Z,18.50
2022-07-26T00:46:47.231Z,18.40
2022-07-26T00:50:49.241Z,18.40
2022-07-26T00:54:54.427Z,18.30
2022-07-26T00:58:56.161Z,18.20
2022-07-26T01:03:00.416Z,18.10
2022-07-26T01:07:03.285Z,18.00
2022-07-26T01:11:16.751Z,18.00
2022-07-26T01:15:18.828Z,17.80
2022-07-26T01:19:21.277Z,17.90
2022-07-26T01:23:23.054Z,17.80
2022-07-26T01:27:25.058Z,17.70
2022-07-26T01:31:26.887Z,17.60
2022-07-26T01:35:29.016Z,17.70
2022-07-26T01:39:30.962Z,17.60
2022-07-26T01:43:32.683Z,17.50
2022-07-26T01:47:34.406Z,17.60
2022-07-26T01:51:36.435Z,17.50
2022-07-26T01:55:38.356Z,17.50
2022-07-26T01:59:40.308Z,17.40
2022-07-26T02:03:42.138Z,17.30
2022-07-26T02:07:44.831Z,17.20
2022-07-26T02:11:48.795Z,17.10
2022-07-26T02:15:50.953Z,17.10
2022-07-26T02:19:53.008Z,17.10
2022-07-26T02:23:54.673Z,17.10
2022-07-26T02:27:56.570Z,17.10
2022-07-26T02:31:58.651Z,17.10
2022-07-26T02:36:00.396Z,17.10
2022-07-26T02:40:02.683Z,17.10
2022-07-26T02:44:06.167Z,17.10
2022-07-26T02:48:08.626Z,17.10
2022-07-26T02:52:10.377Z,17.10
2022-07-26T02:56:12.099Z,17.10
2022-07-26T03:00:16.554Z,17.10
2022-07-26T03:04:18.349Z,17.10
2022-07-26T03:08:22.705Z,17.00
2022-07-26T03:12:25.113Z,17.00
2022-07-26T03:16:29.578Z,17.00
2022-07-26T03:20:31.634Z,17.10
2022-07-26T03:24:33.477Z,17.00
2022-07-26T03:28:36.211Z,17.20
2022-07-26T03:32:38.130Z,17.10
2022-07-26T03:36:40.123Z,17.20
2022-07-26T03:40:57.259Z,17.10
2022-07-26T03:44:59.029Z,17.10
2022-07-26T03:49:00.987Z,17.10
2022-07-26T03:53:03.148Z,17.00
2022-07-26T03:57:05.001Z,17.00
2022-07-26T04:01:06.816Z,17.00
2022-07-26T04:05:08.999Z,17.00
2022-07-26T04:09:11.242Z,16.90
2022-07-26T04:13:13.345Z,17.00
2022-07-26T04:17:15.180Z,17.00
2022-07-26T04:21:17.420Z,17.00
2022-07-26T04:25:19.237Z,17.00
2022-07-26T04:29:21.809Z,17.00
2022-07-26T04:33:24.203Z,17.10
2022-07-26T04:37:26.172Z,17.10
2022-07-26T04:41:27.933Z,17.10
2022-07-26T04:45:30.531Z,17.30
2022-07-26T04:49:32.311Z,17.50
2022-07-26T04:53:34.140Z,17.60
2022-07-26T04:57:36.517Z,17.70
2022-07-26T05:01:39.379Z,17.70
2022-07-26T05:05:41.158Z,17.70
2022-07-26T05:09:42.988Z,17.70
2022-07-26T05:13:44.664Z,17.50
2022-07-26T05:17:46.349Z,17.40
2022-07-26T05:21:48.098Z,17.30
2022-07-26T05:25:49.903Z,17.40
2022-07-26T05:29:52.070Z,17.40
2022-07-26T05:33:55.161Z,17.50
2022-07-26T05:37:56.975Z,17.70
2022-07-26T05:41:58.717Z,17.70
2022-07-26T05:46:00.713Z,17.60
2022-07-26T05:50:02.658Z,17.60
2022-07-26T05:54:04.777Z,17.90
2022-07-26T05:58:06.731Z,17.90
2022-07-26T06:02:08.568Z,17.90
2022-07-26T06:06:11.438Z,17.90
2022-07-26T06:10:13.810Z,18.00
2022-07-26T06:14:15.642Z,18.00
2022-07-26T06:18:17.737Z,18.10
2022-07-26T06:22:19.579Z,18.10
2022-07-26T06:26:23.806Z,18.10
2022-07-26T06:30:25.851Z,18.00
2022-07-26T06:34:27.680Z,18.10
2022-07-26T06:38:29.473Z,18.20
2022-07-26T06:42:33.269Z,18.30
2022-07-26T06:46:36.177Z,18.20
2022-07-26T06:50:40.620Z,18.10
2022-07-26T06:54:42.408Z,18.20
2022-07-26T06:58:44.609Z,18.40
2022-07-26T07:02:46.676Z,18.50
2022-07-26T07:06:48.510Z,18.50
2022-07-26T07:10:52.922Z,18.50
2022-07-26T07:14:56.091Z,18.60
2022-07-26T07:19:00.076Z,18.50
2022-07-26T07:23:01.904Z,18.50
2022-07-26T07:27:03.902Z,18.50
2022-07-26T07:31:06.257Z,18.70
2022-07-26T07:35:12.625Z,18.70
2022-07-26T07:39:17.205Z,18.70
2022-07-26T07:43:19.559Z,18.60
2022-07-26T07:47:22.160Z,18.60
2022-07-26T07:51:23.895Z,18.50
2022-07-26T07:55:46.202Z,18.80
2022-07-26T07:59:48.649Z,18.80
2022-07-26T08:03:50.998Z,18.90
2022-07-26T08:07:52.838Z,19.00
2022-07-26T08:11:54.704Z,19.10
2022-07-26T08:15:56.596Z,19.00
2022-07-26T08:20:01.228Z,19.20
2022-07-26T08:24:03.359Z,19.30
2022-07-26T08:28:05.396Z,19.10
2022-07-26T08:32:07.653Z,19.30
2022-07-26T08:36:09.578Z,19.40
2022-07-26T08:40:11.395Z,19.30
2022-07-26T08:44:13.396Z,19.40
2022-07-26T08:48:17.819Z,19.50
2022-07-26T08:52:20.297Z,19.90
2022-07-26T08:56:22.761Z,19.80
2022-07-26T09:00:31.840Z,20.20
2022-07-26T09:04:43.584Z,20.40
2022-07-26T09:08:53.768Z,20.30
2022-07-26T09:12:58.504Z,20.30
2022-07-26T09:17:00.672Z,21.00
2022-07-26T09:21:02.591Z,21.00
2022-07-26T09:25:20.587Z,21.10
2022-07-26T09:29:22.484Z,20.70
2022-07-26T09:33:24.284Z,20.60
2022-07-26T09:37:43.695Z,20.80
2022-07-26T09:41:45.500Z,20.50
2022-07-26T09:46:02.789Z,20.60
2022-07-26T09:50:16.943Z,20.40
2022-07-26T09:54:39.573Z,20.10
2022-07-26T09:58:44.975Z,20.00
2022-07-26T10:02:46.889Z,20.00
2022-07-26T10:06:49.466Z,20.10
2022-07-26T10:11:00.790Z,20.20
2022-07-26T10:15:02.801Z,20.50
2022-07-26T10:19:04.911Z,20.70
2022-07-26T10:23:36.149Z,20.50
2022-07-26T10:27:39.093Z,20.30
2022-07-26T10:31:41.034Z,20.10
2022-07-26T10:35:43.658Z,20.00
2022-07-26T10:39:45.860Z,20.30
2022-07-26T10:44:28.480Z,20.80
2022-07-26T10:48:30.368Z,21.00
2022-07-26T10:52:32.675Z,20.70
2022-07-26T10:56:34.751Z,21.50
2022-07-26T11:00:36.543Z,21.40
2022-07-26T11:04:38.398Z,21.80
2022-07-26T11:08:45.993Z,21.80
2022-07-26T11:13:00.852Z,21.80
2022-07-26T11:17:02.763Z,21.80
2022-07-26T11:21:17.254Z,21.90
2022-07-26T11:25:22.123Z,21.60
2022-07-26T11:29:37.324Z,21.50
2022-07-26T11:33:48.837Z,21.30
2022-07-26T11:38:02.577Z,21.20
2022-07-26T11:42:19.595Z,21.10
2022-07-26T11:46:21.854Z,20.70
2022-07-26T11:50:23.898Z,20.50
2022-07-26T11:54:31.430Z,20.60
2022-07-26T11:58:33.499Z,20.50
2022-07-26T12:02:35.329Z,20.50
2022-07-26T12:06:39.129Z,20.90
2022-07-26T12:10:53.253Z,20.90
2022-07-26T12:15:06.932Z,21.20
2022-07-26T12:19:18.026Z,21.40
2022-07-26T12:23:19.907Z,21.60
2022-07-26T12:27:30.544Z,22.00
2022-07-26T12:31:34.276Z,22.30
2022-07-26T12:35:36.550Z,22.30
2022-07-26T12:39:39.261Z,22.10
2022-07-26T12:43:41.297Z,22.50
2022-07-26T12:47:44.588Z,22.80
2022-07-26T12:51:46.335Z,22.40
2022-07-26T12:55:48.142Z,22.60
2022-07-26T12:59:49.911Z,22.20
2022-07-26T13:03:51.906Z,21.70
2022-07-26T13:07:54.273Z,21.60
2022-07-26T13:11:57.398Z,21.70
2022-07-26T13:15:59.133Z,22.00
2022-07-26T13:20:00.869Z,22.10
2022-07-26T13:24:02.740Z,22.30
2022-07-26T13:28:08.414Z,22.20
2022-07-26T13:32:10.308Z,22.00
2022-07-26T13:36:12.104Z,22.20
2022-07-26T13:40:13.812Z,22.80
2022-07-26T13:44:16.073Z,22.30
2022-07-26T13:48:17.873Z,23.00
2022-07-26T13:52:19.624Z,22.40
2022-07-26T13:56:21.418Z,22.50
2022-07-26T14:00:23.316Z,22.60
2022-07-26T14:04:25.514Z,22.70
2022-07-26T14:08:27.319Z,22.30
2022-07-26T14:12:29.183Z,22.90
2022-07-26T14:16:31.442Z,23.00
2022-07-26T14:20:33.405Z,23.00
2022-07-26T14:24:35.140Z,22.60
2022-07-26T14:28:36.892Z,23.20
2022-07-26T14:32:38.667Z,22.70
2022-07-26T14:36:40.483Z,22.50
2022-07-26T14:40:44.766Z,22.60
2022-07-26T14:44:46.512Z,22.50
2022-07-26T14:48:54.374Z,22.50
2022-07-26T14:52:56.788Z,22.30
2022-07-26T14:56:58.580Z,21.80
2022-07-26T15:01:00.922Z,21.80
2022-07-26T15:05:03.030Z,21.50
2022-07-26T15:09:12.444Z,22.30
2022-07-26T15:13:15.404Z,21.60
2022-07-26T15:17:17.327Z,21.60
2022-07-26T15:21:19.078Z,21.40
2022-07-26T15:25:22.292Z,21.40
2022-07-26T15:29:24.153Z,21.50
2022-07-26T15:33:25.974Z,21.70
2022-07-26T15:37:27.923Z,21.40
2022-07-26T15:41:29.834Z,21.40
2022-07-26T15:45:32.772Z,21.40
2022-07-26T15:49:35.304Z,21.00
2022-07-26T15:53:47.393Z,21.00
2022-07-26T15:57:49.225Z,21.30
2022-07-26T16:01:54.322Z,20.90
2022-07-26T16:05:56.874Z,20.70
2022-07-26T16:09:58.646Z,20.70
2022-07-26T16:14:01.421Z,20.60
2022-07-26T16:18:06.582Z,20.40
2022-07-26T16:22:08.466Z,20.30
2022-07-26T16:26:10.989Z,20.30
2022-07-26T16:30:14.574Z,20.70
2022-07-26T16:34:16.474Z,20.70
2022-07-26T16:38:18.405Z,21.20
2022-07-26T16:42:24.223Z,21.00
2022-07-26T16:46:28.913Z,20.60
2022-07-26T16:50:30.951Z,20.70
2022-07-26T16:54:33.188Z,20.50
2022-07-26T16:58:35.033Z,20.50
2022-07-26T17:02:37.688Z,20.20
2022-07-26T17:06:39.515Z,20.20
2022-07-26T17:10:41.529Z,20.10
2022-07-26T17:14:43.418Z,19.90
2022-07-26T17:18:45.186Z,19.70
2022-07-26T17:22:46.925Z,19.70
2022-07-26T17:26:48.824Z,19.60
2022-07-26T17:30:50.659Z,19.60
2022-07-26T17:34:52.504Z,19.50
2022-07-26T17:38:55.162Z,19.40
2022-07-26T17:42:57.048Z,19.40
2022-07-26T17:47:00.571Z,19.40
2022-07-26T17:51:02.426Z,19.40
2022-07-26T17:55:04.676Z,19.30
2022-07-26T17:59:06.431Z,19.20
2022-07-26T18:03:08.276Z,19.10
2022-07-26T18:07:10.304Z,19.00
2022-07-26T18:11:12.439Z,19.10
2022-07-26T18:15:14.269Z,19.10
2022-07-26T18:19:18.835Z,19.10
2022-07-26T18:23:20.612Z,19.00
2022-07-26T18:27:23.450Z,19.10
2022-07-26T18:31:25.733Z,18.90
2022-07-26T18:35:28.547Z,18.90
2022-07-26T18:39:33.051Z,18.80
2022-07-26T18:43:35.128Z,18.70
2022-07-26T18:47:37.057Z,18.60
2022-07-26T18:51:39.827Z,18.60
2022-07-26T18:55:41.840Z,18.50
2022-07-26T18:59:43.641Z,18.40
2022-07-26T19:03:45.629Z,18.40
2022-07-26T19:07:47.579Z,18.50
2022-07-26T19:11:49.472Z,18.40
2022-07-26T19:15:52.027Z,18.30
2022-07-26T19:19:54.864Z,18.20
2022-07-26T19:23:58.426Z,18.40
2022-07-26T19:28:01.768Z,18.10
2022-07-26T19:32:04.156Z,18.10
2022-07-26T19:36:06.216Z,18.10
2022-07-26T19:40:11.561Z,18.00
2022-07-26T19:44:13.791Z,17.90
2022-07-26T19:48:15.568Z,17.90
2022-07-26T19:52:17.419Z,17.80
2022-07-26T19:56:19.154Z,17.80
2022-07-26T20:00:22.428Z,17.70
2022-07-26T20:04:24.177Z,17.60
2022-07-26T20:08:26.078Z,17.50
2022-07-26T20:12:28.097Z,17.40
2022-07-26T20:16:29.898Z,17.40
2022-07-26T20:20:31.879Z,17.30
2022-07-26T20:24:38.185Z,17.20
2022-07-26T20:28:40.580Z,17.20
2022-07-26T20:32:42.342Z,17.10
2022-07-26T20:36:44.313Z,17.10
2022-07-26T20:40:47.052Z,16.90
2022-07-26T20:44:49.096Z,16.90
2022-07-26T20:48:50.947Z,16.80
2022-07-26T20:52:53.639Z,16.80
2022-07-26T20:56:55.368Z,16.80
2022-07-26T21:00:57.149Z,16.70
2022-07-26T21:04:58.963Z,16.60
2022-07-26T21:09:00.976Z,16.70
2022-07-26T21:13:10.957Z,16.70
2022-07-26T21:17:12.748Z,16.70
2022-07-26T21:21:14.541Z,16.60
2022-07-26T21:25:16.361Z,16.50
2022-07-26T21:29:18.061Z,16.50
2022-07-26T21:33:19.794Z,16.60
2022-07-26T21:37:21.666Z,16.50
2022-07-26T21:41:23.390Z,16.50
2022-07-26T21:45:25.186Z,16.50
2022-07-26T21:49:26.915Z,16.60
2022-07-26T21:53:28.711Z,16.50
2022-07-26T21:57:30.495Z,16.50
2022-07-26T22:01:32.305Z,16.50
2022-07-26T22:05:41.778Z,16.50
2022-07-26T22:09:43.416Z,16.40
2022-07-26T22:13:45.218Z,16.40
2022-07-26T22:17:47.001Z,16.40
2022-07-26T22:21:53.293Z,16.30
2022-07-26T22:25:55.870Z,16.40
2022-07-26T22:29:57.602Z,16.30
2022-07-26T22:33:59.284Z,16.20
2022-07-26T22:38:07.113Z,16.20
2022-07-26T22:42:16.290Z,16.20
2022-07-26T22:46:18.982Z,16.20
2022-07-26T22:50:29.932Z,16.10
2022-07-26T22:54:31.610Z,16.10
2022-07-26T22:58:33.432Z,16.20
2022-07-26T23:02:36.346Z,16.20
2022-07-26T23:06:38.005Z,16.10
2022-07-26T23:10:40.273Z,16.00
2022-07-26T23:14:42.153Z,16.00
2022-07-26T23:18:43.846Z,16.00
2022-07-26T23:22:45.657Z,16.00
2022-07-26T23:26:47.366Z,16.00
2022-07-26T23:30:49.057Z,16.00
2022-07-26T23:34:50.734Z,16.00
2022-07-26T23:38:53.528Z,15.90
2022-07-26T23:42:56.205Z,15.90
2022-07-26T23:46:59.225Z,15.90
2022-07-26T23:51:00.963Z,15.90
2022-07-26T23:55:03.060Z,15.80
2022-07-26T23:59:05.894Z,15.80
